createdAt,value
2019-05-19T00:02:23.446Z,19.70
2019-05-19T00:04:53.739Z,18.92
2019-05-19T00:07:23.996Z,18.73
2019-05-19T00:09:54.358Z,20.08
2019-05-19T00:12:27.928Z,16.00
2019-05-19T00:14:58.312Z,16.23
2019-05-19T00:17:28.611Z,16.50
2019-05-19T00:19:58.847Z,16.77
2019-05-19T00:22:29.462Z,17.67
2019-05-19T00:24:59.725Z,15.77
2019-05-19T00:27:30.057Z,15.57
2019-05-19T00:30:00.186Z,16.45
2019-05-19T00:32:30.486Z,17.10
2019-05-19T00:35:01.159Z,19.83
2019-05-19T00:37:31.752Z,16.62
2019-05-19T00:40:02.032Z,16.87
2019-05-19T00:42:32.849Z,16.20
2019-05-19T00:45:03.864Z,15.35
2019-05-19T00:47:34.234Z,15.70
2019-05-19T00:50:05.327Z,15.90
2019-05-19T00:52:35.638Z,17.25
2019-05-19T00:55:05.987Z,16.80
2019-05-19T00:57:37.796Z,16.93
2019-05-19T01:00:09.046Z,18.10
2019-05-19T01:02:39.642Z,18.35
2019-05-19T01:05:12.422Z,19.05
2019-05-19T01:07:43.099Z,19.00
2019-05-19T01:10:14.603Z,18.37
2019-05-19T01:12:44.848Z,18.23
2019-05-19T01:15:15.210Z,17.77
2019-05-19T01:17:45.479Z,19.07
2019-05-19T01:20:17.512Z,24.00
2019-05-19T01:22:47.740Z,20.40
2019-05-19T01:25:17.947Z,18.23
2019-05-19T01:27:48.228Z,19.95
2019-05-19T01:30:18.666Z,22.52
2019-05-19T01:32:48.821Z,22.00
2019-05-19T01:35:19.224Z,21.68
2019-05-19T01:37:49.460Z,22.33
2019-05-19T01:40:19.784Z,22.30
2019-05-19T01:42:49.847Z,28.83
2019-05-19T01:45:20.816Z,21.85
2019-05-19T01:47:51.451Z,22.05
2019-05-19T01:50:21.763Z,21.87
2019-05-19T01:52:52.130Z,21.80
2019-05-19T01:55:22.401Z,23.05
2019-05-19T01:57:52.673Z,21.90
2019-05-19T02:00:22.891Z,23.60
2019-05-19T02:02:53.281Z,24.80
2019-05-19T02:05:23.584Z,39.83
2019-05-19T02:07:53.817Z,46.68
2019-05-19T02:10:24.109Z,38.90
2019-05-19T02:12:54.218Z,39.45
2019-05-19T02:15:24.500Z,46.07
2019-05-19T02:17:55.330Z,58.73
2019-05-19T02:20:33.319Z,61.10
2019-05-19T02:22:57.541Z,63.52
2019-05-19T02:25:27.768Z,56.83
2019-05-19T02:27:57.963Z,59.93
2019-05-19T02:30:29.026Z,63.92
2019-05-19T02:32:59.216Z,66.05
2019-05-19T02:35:29.495Z,69.70
2019-05-19T02:38:00.192Z,66.53
2019-05-19T02:40:31.947Z,50.20
2019-05-19T02:43:03.057Z,34.33
2019-05-19T02:45:36.148Z,31.48
2019-05-19T02:48:07.233Z,34.48
2019-05-19T02:50:51.411Z,28.80
2019-05-19T02:53:12.341Z,24.77
2019-05-19T02:55:42.921Z,23.50
2019-05-19T02:58:13.386Z,24.90
2019-05-19T03:00:43.820Z,28.85
2019-05-19T03:03:14.815Z,27.02
2019-05-19T03:05:45.036Z,24.12
2019-05-19T03:08:15.364Z,24.98
2019-05-19T03:10:45.732Z,24.07
2019-05-19T03:13:16.072Z,23.95
2019-05-19T03:15:46.288Z,23.85
2019-05-19T03:18:16.775Z,21.95
2019-05-19T03:20:47.032Z,21.48
2019-05-19T03:23:17.586Z,22.52
2019-05-19T03:25:47.869Z,22.07
2019-05-19T03:28:18.119Z,21.67
2019-05-19T03:31:06.420Z,21.60
2019-05-19T03:33:38.601Z,22.48
2019-05-19T03:36:08.886Z,21.95
2019-05-19T03:38:39.188Z,20.95
2019-05-19T03:41:09.816Z,22.58
2019-05-19T03:43:40.271Z,21.90
2019-05-19T03:46:10.675Z,23.12
2019-05-19T03:48:40.853Z,21.68
2019-05-19T03:51:28.682Z,24.23
2019-05-19T03:53:43.077Z,23.90
2019-05-19T03:56:13.266Z,23.53
2019-05-19T03:58:43.613Z,24.30
2019-05-19T04:01:13.779Z,23.23
2019-05-19T04:03:44.180Z,20.97
2019-05-19T04:06:14.383Z,22.47
2019-05-19T04:08:44.840Z,20.80
2019-05-19T04:11:15.067Z,22.10
2019-05-19T04:13:45.325Z,22.07
2019-05-19T04:16:15.493Z,19.50
2019-05-19T04:18:45.585Z,19.82
2019-05-19T04:21:15.745Z,19.57
2019-05-19T04:23:46.343Z,20.40
2019-05-19T04:26:16.977Z,20.10
2019-05-19T04:28:47.226Z,21.13
2019-05-19T04:31:17.580Z,19.80
2019-05-19T04:33:47.730Z,18.83
2019-05-19T04:36:17.863Z,18.73
2019-05-19T04:38:49.596Z,18.50
2019-05-19T04:41:20.082Z,18.30
2019-05-19T04:43:50.752Z,18.75
2019-05-19T04:46:20.938Z,18.10
2019-05-19T04:48:51.656Z,18.80
2019-05-19T04:51:21.902Z,18.40
2019-05-19T04:53:52.266Z,18.95
2019-05-19T04:56:25.783Z,18.80
2019-05-19T04:58:55.944Z,19.10
2019-05-19T05:01:26.509Z,19.60
2019-05-19T05:03:56.811Z,18.92
2019-05-19T05:06:27.184Z,18.60
2019-05-19T05:08:57.481Z,18.65
2019-05-19T05:11:27.739Z,18.40
2019-05-19T05:13:58.522Z,18.12
2019-05-19T05:16:28.764Z,18.32
2019-05-19T05:18:58.815Z,18.30
2019-05-19T05:21:29.180Z,17.40
2019-05-19T05:23:59.770Z,16.75
2019-05-19T05:26:30.440Z,16.95
2019-05-19T05:29:01.095Z,17.00
2019-05-19T05:31:31.307Z,16.62
2019-05-19T05:34:01.494Z,16.42
2019-05-19T05:36:31.677Z,16.43
2019-05-19T05:39:02.390Z,16.00
2019-05-19T05:41:34.342Z,15.72
2019-05-19T05:44:04.685Z,14.60
2019-05-19T05:46:35.031Z,14.63
2019-05-19T05:49:05.349Z,14.58
2019-05-19T05:51:37.587Z,15.03
2019-05-19T05:54:07.757Z,13.90
2019-05-19T05:56:37.907Z,14.30
2019-05-19T05:59:08.103Z,14.13
2019-05-19T06:01:38.620Z,14.35
2019-05-19T06:04:08.859Z,13.78
2019-05-19T06:06:39.062Z,14.13
2019-05-19T06:09:09.299Z,13.08
2019-05-19T06:11:39.468Z,13.43
2019-05-19T06:14:09.822Z,12.80
2019-05-19T06:16:40.116Z,13.30
2019-05-19T06:19:10.444Z,13.00
2019-05-19T06:21:40.638Z,12.25
2019-05-19T06:24:10.931Z,11.97
2019-05-19T06:26:41.180Z,11.20
2019-05-19T06:29:11.382Z,11.63
2019-05-19T06:31:41.446Z,11.50
2019-05-19T06:34:11.634Z,11.15
2019-05-19T06:36:41.964Z,11.50
2019-05-19T06:39:12.390Z,11.80
2019-05-19T06:41:42.734Z,11.50
2019-05-19T06:44:13.011Z,11.10
2019-05-19T06:46:43.402Z,11.10
2019-05-19T06:49:13.840Z,11.25
2019-05-19T06:51:52.011Z,11.05
2019-05-19T06:54:19.327Z,10.90
2019-05-19T06:56:49.636Z,9.90
2019-05-19T06:59:20.010Z,9.93
2019-05-19T07:01:53.098Z,10.00
2019-05-19T07:04:23.426Z,8.95
2019-05-19T07:06:55.682Z,8.90
2019-05-19T07:09:29.666Z,9.23
2019-05-19T07:12:11.151Z,8.98
2019-05-19T07:14:50.014Z,8.85
2019-05-19T07:17:22.105Z,8.70
2019-05-19T07:19:52.219Z,8.23
2019-05-19T07:22:22.121Z,7.83
2019-05-19T07:24:52.255Z,8.68
2019-05-19T07:27:31.463Z,8.48
2019-05-19T07:30:01.479Z,8.18
2019-05-19T07:32:32.284Z,8.00
2019-05-19T07:35:10.468Z,7.30
2019-05-19T07:37:51.250Z,8.20
2019-05-19T07:40:16.937Z,7.60
2019-05-19T07:42:47.605Z,8.27
2019-05-19T07:45:18.506Z,8.10
2019-05-19T07:48:01.566Z,8.53
2019-05-19T07:50:42.831Z,8.88
2019-05-19T07:53:15.037Z,8.83
2019-05-19T07:56:08.440Z,9.20
2019-05-19T07:59:08.032Z,9.30
2019-05-19T08:01:44.556Z,8.78
2019-05-19T08:04:23.748Z,8.70
2019-05-19T08:07:26.701Z,9.40
2019-05-19T08:12:26.537Z,7.05
2019-05-19T08:17:28.596Z,7.30
2019-05-19T08:20:16.502Z,7.90
2019-05-19T08:26:00.747Z,8.08
2019-05-19T08:28:43.816Z,8.20
2019-05-19T08:32:10.743Z,8.03
2019-05-19T08:35:04.370Z,8.15
2019-05-19T08:41:25.298Z,8.30
2019-05-19T08:48:30.854Z,8.70
2019-05-19T08:58:41.514Z,9.05
2019-05-19T09:01:02.816Z,8.70
2019-05-19T09:04:08.480Z,10.13
2019-05-19T09:07:41.759Z,9.10
2019-05-19T09:14:23.781Z,9.98
2019-05-19T09:18:00.910Z,9.93
2019-05-19T09:25:08.326Z,9.80
2019-05-19T09:28:39.020Z,9.20
2019-05-19T09:34:35.667Z,9.17
2019-05-19T09:44:27.859Z,9.78
2019-05-19T09:54:18.984Z,10.00
2019-05-19T09:57:11.958Z,9.90
2019-05-19T10:00:34.779Z,9.93
2019-05-19T10:03:58.212Z,10.63
2019-05-19T10:11:24.983Z,10.05
2019-05-19T10:14:17.158Z,10.30
2019-05-19T10:18:02.374Z,10.03
2019-05-19T10:20:34.262Z,10.55
2019-05-19T10:23:10.183Z,9.50
2019-05-19T10:25:52.056Z,9.20
2019-05-19T10:28:33.468Z,8.03
2019-05-19T10:31:15.775Z,9.05
2019-05-19T10:33:57.582Z,9.97
2019-05-19T10:36:28.210Z,9.45
2019-05-19T10:38:58.550Z,9.20
2019-05-19T10:41:32.532Z,9.15
2019-05-19T10:44:11.296Z,8.65
2019-05-19T10:46:43.738Z,8.93
2019-05-19T10:49:17.242Z,9.43
2019-05-19T10:51:48.950Z,8.10
2019-05-19T10:54:19.674Z,7.90
2019-05-19T10:56:51.926Z,8.80
2019-05-19T10:59:27.704Z,7.80
2019-05-19T11:02:23.694Z,8.28
2019-05-19T11:04:55.101Z,8.63
2019-05-19T11:07:31.852Z,8.80
2019-05-19T11:10:04.074Z,8.70
2019-05-19T11:12:35.647Z,9.63
2019-05-19T11:15:15.812Z,9.40
2019-05-19T11:18:09.566Z,8.80
2019-05-19T11:21:01.179Z,9.10
2019-05-19T11:23:37.064Z,9.38
2019-05-19T11:26:07.489Z,7.50
2019-05-19T11:28:37.647Z,8.10
2019-05-19T11:31:12.214Z,7.90
2019-05-19T11:34:12.883Z,7.90
2019-05-19T11:36:58.129Z,7.60
2019-05-19T11:39:25.588Z,7.60
2019-05-19T11:41:55.770Z,7.30
2019-05-19T11:44:33.061Z,7.55
2019-05-19T11:47:06.900Z,8.30
2019-05-19T11:49:47.032Z,7.83
2019-05-19T11:52:40.946Z,7.90
2019-05-19T11:55:14.472Z,8.38
2019-05-19T11:57:46.644Z,8.13
2019-05-19T12:00:40.195Z,7.75
2019-05-19T12:03:29.710Z,7.42
2019-05-19T12:06:04.487Z,7.25
2019-05-19T12:08:50.664Z,8.13
2019-05-19T12:11:29.134Z,7.27
2019-05-19T12:14:10.229Z,6.80
2019-05-19T12:16:43.437Z,7.90
2019-05-19T12:19:13.906Z,7.10
2019-05-19T12:25:23.736Z,7.60
2019-05-19T12:28:27.840Z,7.13
2019-05-19T12:31:01.644Z,7.33
2019-05-19T12:33:31.977Z,7.25
2019-05-19T12:36:06.180Z,6.83
2019-05-19T12:38:44.560Z,7.00
2019-05-19T12:41:34.908Z,6.60
2019-05-19T12:45:05.594Z,6.70
2019-05-19T12:46:52.261Z,7.30
2019-05-19T12:50:11.044Z,8.10
2019-05-19T12:52:35.237Z,8.08
2019-05-19T12:55:15.869Z,7.50
2019-05-19T12:57:54.003Z,7.42
2019-05-19T13:00:49.959Z,6.40
2019-05-19T13:03:49.831Z,6.92
2019-05-19T13:07:10.177Z,6.50
2019-05-19T13:09:52.762Z,7.50
2019-05-19T13:12:41.430Z,7.50
2019-05-19T13:19:57.850Z,7.50
2019-05-19T13:22:40.868Z,7.30
2019-05-19T13:28:43.715Z,7.37
2019-05-19T13:31:30.494Z,7.10
2019-05-19T13:34:06.438Z,6.78
2019-05-19T13:36:40.381Z,7.58
2019-05-19T13:40:09.516Z,8.05
2019-05-19T13:43:00.721Z,7.45
2019-05-19T13:45:46.381Z,8.00
2019-05-19T13:48:35.483Z,7.80
2019-05-19T13:51:38.982Z,7.87
2019-05-19T13:54:38.540Z,7.80
2019-05-19T13:57:36.431Z,8.28
2019-05-19T14:00:15.622Z,8.30
2019-05-19T14:04:00.549Z,8.55
2019-05-19T14:07:08.967Z,8.80
2019-05-19T14:10:21.915Z,8.78
2019-05-19T14:16:49.298Z,8.80
2019-05-19T14:37:53.083Z,8.30
2019-05-19T14:51:10.243Z,7.50
2019-05-19T14:53:58.470Z,7.35
2019-05-19T14:59:55.509Z,7.42
2019-05-19T15:09:14.617Z,6.78
2019-05-19T15:43:02.092Z,7.60
2019-05-19T16:05:51.750Z,7.97
2019-05-19T16:20:58.858Z,8.30
2019-05-19T16:43:39.927Z,8.67
2019-05-19T17:20:39.095Z,8.80
2019-05-19T17:22:48.427Z,8.45
2019-05-19T17:25:19.280Z,8.80
2019-05-19T17:28:29.383Z,9.10
2019-05-19T17:31:46.589Z,8.50
2019-05-19T17:34:36.339Z,9.13
2019-05-19T17:37:13.120Z,8.60
2019-05-19T17:40:20.191Z,8.55
2019-05-19T17:50:49.176Z,8.60
2019-05-19T17:54:36.174Z,9.05
2019-05-19T18:01:10.496Z,8.98
2019-05-19T18:07:20.515Z,9.30
2019-05-19T18:10:08.889Z,8.95
2019-05-19T18:12:47.671Z,8.90
2019-05-19T18:17:05.453Z,8.90
2019-05-19T18:18:04.436Z,9.65
2019-05-19T18:20:35.157Z,8.80
2019-05-19T18:23:13.207Z,9.85
2019-05-19T18:26:18.891Z,9.43
2019-05-19T18:29:42.393Z,8.88
2019-05-19T18:32:14.004Z,9.58
2019-05-19T18:34:52.631Z,9.20
2019-05-19T18:37:38.918Z,9.23
2019-05-19T18:40:26.100Z,9.93
2019-05-19T18:43:11.149Z,9.23
2019-05-19T18:46:03.253Z,9.53
2019-05-19T18:49:10.030Z,9.10
2019-05-19T18:52:49.509Z,9.93
2019-05-19T18:55:31.069Z,10.35
2019-05-19T18:58:11.628Z,9.63
2019-05-19T19:01:38.677Z,9.88
2019-05-19T19:04:21.105Z,9.88
2019-05-19T19:07:12.305Z,10.45
2019-05-19T19:10:40.195Z,9.75
2019-05-19T19:12:42.027Z,9.75
2019-05-19T19:15:19.037Z,9.83
2019-05-19T19:17:52.874Z,9.70
2019-05-19T19:20:26.128Z,11.70
2019-05-19T19:23:32.289Z,13.03
2019-05-19T19:26:04.160Z,12.70
2019-05-19T19:31:48.527Z,13.25
2019-05-19T19:34:33.952Z,13.13
2019-05-19T19:37:04.581Z,14.35
2019-05-19T19:39:37.331Z,13.20
2019-05-19T19:42:08.581Z,13.68
2019-05-19T19:45:03.892Z,13.65
2019-05-19T19:47:49.697Z,13.20
2019-05-19T19:50:48.630Z,14.87
2019-05-19T19:53:38.445Z,14.23
2019-05-19T19:56:15.032Z,15.45
2019-05-19T19:59:05.134Z,15.95
2019-05-19T20:01:35.606Z,16.30
2019-05-19T20:04:15.834Z,14.90
2019-05-19T20:06:47.111Z,15.48
2019-05-19T20:09:37.700Z,15.00
2019-05-19T20:12:09.896Z,16.05
2019-05-19T20:14:57.809Z,16.12
2019-05-19T20:18:37.304Z,14.85
2019-05-19T20:21:29.217Z,16.10
2019-05-19T20:23:48.981Z,16.17
2019-05-19T20:26:40.111Z,16.02
2019-05-19T20:29:15.195Z,15.65
2019-05-19T20:31:46.750Z,16.60
2019-05-19T20:34:16.928Z,16.25
2019-05-19T20:37:00.913Z,15.93
2019-05-19T20:39:26.635Z,28.30
2019-05-19T20:42:19.798Z,19.55
2019-05-19T20:44:52.757Z,16.62
2019-05-19T20:47:33.717Z,19.82
2019-05-19T20:50:08.072Z,15.48
2019-05-19T20:52:46.063Z,13.50
2019-05-19T20:56:01.613Z,12.90
2019-05-19T20:59:05.420Z,12.45
2019-05-19T21:01:57.930Z,14.53
2019-05-19T21:04:23.575Z,14.47
2019-05-19T21:07:07.912Z,13.32
2019-05-19T21:09:47.626Z,13.50
2019-05-19T21:14:45.061Z,12.75
2019-05-19T21:19:58.031Z,12.40
2019-05-19T21:22:49.014Z,14.67
2019-05-19T21:25:37.199Z,18.85
2019-05-19T21:28:34.733Z,19.02
2019-05-19T21:31:11.037Z,18.50
2019-05-19T21:34:10.594Z,16.75
2019-05-19T21:36:43.153Z,15.08
2019-05-19T21:39:19.876Z,15.25
2019-05-19T21:42:14.893Z,15.30
2019-05-19T21:45:15.821Z,14.83
2019-05-19T21:47:39.712Z,13.70
2019-05-19T21:50:22.609Z,13.38
2019-05-19T21:52:55.416Z,13.13
2019-05-19T21:55:25.348Z,13.53
2019-05-19T21:58:02.589Z,12.53
2019-05-19T22:00:32.793Z,11.93
2019-05-19T22:03:03.450Z,13.00
2019-05-19T22:05:33.524Z,12.57
2019-05-19T22:08:07.420Z,11.43
2019-05-19T22:10:37.552Z,12.75
2019-05-19T22:13:07.900Z,11.23
2019-05-19T22:15:37.904Z,12.30
2019-05-19T22:18:07.901Z,15.10
2019-05-19T22:20:37.792Z,14.85
2019-05-19T22:23:07.726Z,15.60
2019-05-19T22:25:37.585Z,13.58
2019-05-19T22:28:07.984Z,13.70
2019-05-19T22:30:37.988Z,14.10
2019-05-19T22:33:07.915Z,13.18
2019-05-19T22:35:38.081Z,12.20
2019-05-19T22:38:09.563Z,10.75
2019-05-19T22:40:39.814Z,10.78
2019-05-19T22:43:09.768Z,11.83
2019-05-19T22:45:42.846Z,12.78
2019-05-19T22:48:12.803Z,13.10
2019-05-19T22:50:42.791Z,13.10
2019-05-19T22:53:12.974Z,16.57
2019-05-19T22:55:43.332Z,14.60
2019-05-19T22:58:13.284Z,13.30
2019-05-19T23:00:43.254Z,12.57
2019-05-19T23:03:13.180Z,15.78
2019-05-19T23:05:45.358Z,14.58
2019-05-19T23:08:15.393Z,12.53
2019-05-19T23:10:48.067Z,12.00
2019-05-19T23:13:17.912Z,11.38
2019-05-19T23:15:47.844Z,10.80
2019-05-19T23:18:17.843Z,11.43
2019-05-19T23:20:48.496Z,11.57
2019-05-19T23:23:18.488Z,10.72
2019-05-19T23:25:48.443Z,10.20
2019-05-19T23:28:18.366Z,10.20
2019-05-19T23:30:48.233Z,11.00
2019-05-19T23:33:18.148Z,12.80
2019-05-19T23:35:48.044Z,10.98
2019-05-19T23:38:18.510Z,12.10
2019-05-19T23:40:48.496Z,11.22
2019-05-19T23:43:18.344Z,9.88
2019-05-19T23:45:48.527Z,10.10
2019-05-19T23:48:18.424Z,10.38
2019-05-19T23:50:51.514Z,10.43
2019-05-19T23:53:21.433Z,9.83
2019-05-19T23:55:51.285Z,10.70
2019-05-19T23:58:21.467Z,10.10
